sensor_id;sensor_type;location;lat;lon;timestamp;P1;durP1;ratioP1;P2;durP2;ratioP2
59830;SDS011;45711;50.108;13.712;2023-08-17T00:01:52;9.18;;;5.55;;
59830;SDS011;45711;50.108;13.712;2023-08-17T00:04:20;9.80;;;5.50;;
59830;SDS011;45711;50.108;13.712;2023-08-17T00:06:47;8.82;;;6.05;;
59830;SDS011;45711;50.108;13.712;2023-08-17T00:09:13;6.82;;;5.38;;
59830;SDS011;45711;50.108;13.712;2023-08-17T00:11:40;12.32;;;6.22;;
59830;SDS011;45711;50.108;13.712;2023-08-17T00:14:05;7.70;;;5.57;;
59830;SDS011;45711;50.108;13.712;2023-08-17T00:16:31;9.60;;;5.78;;
59830;SDS011;45711;50.108;13.712;2023-08-17T00:18:57;11.50;;;6.30;;
59830;SDS011;45711;50.108;13.712;2023-08-17T00:21:23;7.88;;;5.82;;
59830;SDS011;45711;50.108;13.712;2023-08-17T00:23:48;12.30;;;5.85;;
59830;SDS011;45711;50.108;13.712;2023-08-17T00:26:14;9.27;;;5.97;;
59830;SDS011;45711;50.108;13.712;2023-08-17T00:28:42;17.55;;;5.78;;
59830;SDS011;45711;50.108;13.712;2023-08-17T00:31:07;9.00;;;5.50;;
59830;SDS011;45711;50.108;13.712;2023-08-17T00:33:33;7.13;;;5.50;;
59830;SDS011;45711;50.108;13.712;2023-08-17T00:35:59;9.23;;;5.65;;
59830;SDS011;45711;50.108;13.712;2023-08-17T00:38:24;10.35;;;5.65;;
59830;SDS011;45711;50.108;13.712;2023-08-17T00:40:50;12.68;;;5.57;;
59830;SDS011;45711;50.108;13.712;2023-08-17T00:43:15;10.68;;;6.22;;
59830;SDS011;45711;50.108;13.712;2023-08-17T00:45:43;8.05;;;5.68;;
59830;SDS011;45711;50.108;13.712;2023-08-17T00:48:10;11.40;;;5.35;;
59830;SDS011;45711;50.108;13.712;2023-08-17T00:50:36;8.35;;;5.53;;
59830;SDS011;45711;50.108;13.712;2023-08-17T00:53:04;8.18;;;5.85;;
59830;SDS011;45711;50.108;13.712;2023-08-17T00:55:30;13.05;;;6.00;;
59830;SDS011;45711;50.108;13.712;2023-08-17T00:57:56;11.85;;;6.78;;
59830;SDS011;45711;50.108;13.712;2023-08-17T01:00:23;10.55;;;6.88;;
59830;SDS011;45711;50.108;13.712;2023-08-17T01:02:53;16.38;;;8.02;;
59830;SDS011;45711;50.108;13.712;2023-08-17T01:05:18;15.40;;;8.00;;
59830;SDS011;45711;50.108;13.712;2023-08-17T01:07:44;14.50;;;7.70;;
59830;SDS011;45711;50.108;13.712;2023-08-17T01:10:10;11.15;;;7.47;;
59830;SDS011;45711;50.108;13.712;2023-08-17T01:12:37;9.35;;;6.10;;
59830;SDS011;45711;50.108;13.712;2023-08-17T01:15:08;7.75;;;5.72;;
59830;SDS011;45711;50.108;13.712;2023-08-17T01:17:40;8.57;;;5.97;;
59830;SDS011;45711;50.108;13.712;2023-08-17T01:20:10;21.38;;;8.48;;
59830;SDS011;45711;50.108;13.712;2023-08-17T01:22:38;16.08;;;9.45;;
59830;SDS011;45711;50.108;13.712;2023-08-17T01:25:08;14.82;;;9.45;;
59830;SDS011;45711;50.108;13.712;2023-08-17T01:27:36;15.13;;;7.68;;
59830;SDS011;45711;50.108;13.712;2023-08-17T01:30:03;14.35;;;7.55;;
59830;SDS011;45711;50.108;13.712;2023-08-17T01:32:32;12.02;;;7.55;;
59830;SDS011;45711;50.108;13.712;2023-08-17T01:35:07;11.05;;;7.13;;
59830;SDS011;45711;50.108;13.712;2023-08-17T01:37:40;12.85;;;6.07;;
59830;SDS011;45711;50.108;13.712;2023-08-17T01:40:09;7.75;;;5.50;;
59830;SDS011;45711;50.108;13.712;2023-08-17T01:42:37;11.85;;;5.88;;
59830;SDS011;45711;50.108;13.712;2023-08-17T01:45:05;9.70;;;5.80;;
59830;SDS011;45711;50.108;13.712;2023-08-17T01:47:31;9.75;;;6.40;;
59830;SDS011;45711;50.108;13.712;2023-08-17T01:49:57;8.23;;;5.90;;
59830;SDS011;45711;50.108;13.712;2023-08-17T01:52:25;11.25;;;6.10;;
59830;SDS011;45711;50.108;13.712;2023-08-17T01:54:52;11.70;;;6.03;;
59830;SDS011;45711;50.108;13.712;2023-08-17T01:57:19;16.50;;;6.05;;
59830;SDS011;45711;50.108;13.712;2023-08-17T01:59:45;12.68;;;5.88;;
59830;SDS011;45711;50.108;13.712;2023-08-17T02:02:11;11.77;;;6.57;;
59830;SDS011;45711;50.108;13.712;2023-08-17T02:04:39;11.77;;;6.40;;
59830;SDS011;45711;50.108;13.712;2023-08-17T02:07:05;24.83;;;7.15;;
59830;SDS011;45711;50.108;13.712;2023-08-17T02:09:30;12.23;;;7.07;;
59830;SDS011;45711;50.108;13.712;2023-08-17T02:11:56;10.80;;;7.55;;
59830;SDS011;45711;50.108;13.712;2023-08-17T02:14:23;10.93;;;6.82;;
59830;SDS011;45711;50.108;13.712;2023-08-17T02:16:49;8.05;;;6.35;;
59830;SDS011;45711;50.108;13.712;2023-08-17T02:19:14;9.85;;;7.28;;
59830;SDS011;45711;50.108;13.712;2023-08-17T02:21:40;8.35;;;5.97;;
59830;SDS011;45711;50.108;13.712;2023-08-17T02:24:06;8.98;;;6.57;;
59830;SDS011;45711;50.108;13.712;2023-08-17T02:26:32;8.20;;;6.43;;
59830;SDS011;45711;50.108;13.712;2023-08-17T02:28:57;11.10;;;7.00;;
59830;SDS011;45711;50.108;13.712;2023-08-17T02:31:24;9.60;;;6.75;;
59830;SDS011;45711;50.108;13.712;2023-08-17T02:33:50;8.93;;;6.10;;
59830;SDS011;45711;50.108;13.712;2023-08-17T02:36:15;11.00;;;5.93;;
59830;SDS011;45711;50.108;13.712;2023-08-17T02:38:41;9.45;;;6.00;;
59830;SDS011;45711;50.108;13.712;2023-08-17T02:41:06;13.25;;;6.07;;
59830;SDS011;45711;50.108;13.712;2023-08-17T02:43:32;13.57;;;6.00;;
59830;SDS011;45711;50.108;13.712;2023-08-17T02:45:58;11.55;;;6.80;;
59830;SDS011;45711;50.108;13.712;2023-08-17T02:48:26;10.57;;;6.60;;
59830;SDS011;45711;50.108;13.712;2023-08-17T02:50:51;13.20;;;7.10;;
59830;SDS011;45711;50.108;13.712;2023-08-17T02:53:17;9.32;;;6.78;;
59830;SDS011;45711;50.108;13.712;2023-08-17T02:55:42;10.25;;;7.43;;
59830;SDS011;45711;50.108;13.712;2023-08-17T02:58:08;10.95;;;6.82;;
59830;SDS011;45711;50.108;13.712;2023-08-17T03:00:34;13.18;;;6.88;;
59830;SDS011;45711;50.108;13.712;2023-08-17T03:02:59;10.48;;;6.25;;
59830;SDS011;45711;50.108;13.712;2023-08-17T03:05:29;12.25;;;6.20;;
59830;SDS011;45711;50.108;13.712;2023-08-17T03:07:55;7.75;;;6.32;;
59830;SDS011;45711;50.108;13.712;2023-08-17T03:10:26;8.80;;;6.22;;
59830;SDS011;45711;50.108;13.712;2023-08-17T03:12:52;10.40;;;6.60;;
59830;SDS011;45711;50.108;13.712;2023-08-17T03:15:17;10.75;;;6.82;;
59830;SDS011;45711;50.108;13.712;2023-08-17T03:17:43;12.93;;;7.03;;
59830;SDS011;45711;50.108;13.712;2023-08-17T03:20:08;32.22;;;7.78;;
59830;SDS011;45711;50.108;13.712;2023-08-17T03:22:39;14.77;;;6.82;;
59830;SDS011;45711;50.108;13.712;2023-08-17T03:25:05;11.73;;;6.88;;
59830;SDS011;45711;50.108;13.712;2023-08-17T03:27:31;8.45;;;6.38;;
59830;SDS011;45711;50.108;13.712;2023-08-17T03:29:57;11.43;;;6.75;;
59830;SDS011;45711;50.108;13.712;2023-08-17T03:32:22;8.90;;;6.07;;
59830;SDS011;45711;50.108;13.712;2023-08-17T03:34:48;11.85;;;6.72;;
59830;SDS011;45711;50.108;13.712;2023-08-17T03:37:13;10.23;;;7.10;;
59830;SDS011;45711;50.108;13.712;2023-08-17T03:39:40;13.93;;;7.93;;
59830;SDS011;45711;50.108;13.712;2023-08-17T03:42:06;22.90;;;7.88;;
59830;SDS011;45711;50.108;13.712;2023-08-17T03:44:32;13.88;;;8.32;;
59830;SDS011;45711;50.108;13.712;2023-08-17T03:46:58;13.07;;;7.90;;
59830;SDS011;45711;50.108;13.712;2023-08-17T03:49:23;10.85;;;8.10;;
59830;SDS011;45711;50.108;13.712;2023-08-17T03:51:49;14.80;;;7.20;;
59830;SDS011;45711;50.108;13.712;2023-08-17T03:54:14;14.60;;;6.97;;
59830;SDS011;45711;50.108;13.712;2023-08-17T03:56:41;14.63;;;7.00;;
59830;SDS011;45711;50.108;13.712;2023-08-17T03:59:07;17.13;;;7.60;;
59830;SDS011;45711;50.108;13.712;2023-08-17T04:01:32;10.88;;;7.95;;
59830;SDS011;45711;50.108;13.712;2023-08-17T04:03:58;15.13;;;7.88;;
59830;SDS011;45711;50.108;13.712;2023-08-17T04:06:23;12.73;;;7.65;;
59830;SDS011;45711;50.108;13.712;2023-08-17T04:08:49;14.82;;;7.78;;
59830;SDS011;45711;50.108;13.712;2023-08-17T04:11:14;12.95;;;7.90;;
59830;SDS011;45711;50.108;13.712;2023-08-17T04:13:41;16.88;;;7.47;;
59830;SDS011;45711;50.108;13.712;2023-08-17T04:16:07;11.38;;;8.15;;
59830;SDS011;45711;50.108;13.712;2023-08-17T04:18:33;13.82;;;8.15;;
59830;SDS011;45711;50.108;13.712;2023-08-17T04:20:58;16.98;;;8.80;;
59830;SDS011;45711;50.108;13.712;2023-08-17T04:23:24;12.00;;;8.65;;
59830;SDS011;45711;50.108;13.712;2023-08-17T04:25:49;11.02;;;8.15;;
59830;SDS011;45711;50.108;13.712;2023-08-17T04:28:15;14.00;;;8.55;;
59830;SDS011;45711;50.108;13.712;2023-08-17T04:30:42;14.38;;;8.80;;
59830;SDS011;45711;50.108;13.712;2023-08-17T04:33:07;49.08;;;7.65;;
59830;SDS011;45711;50.108;13.712;2023-08-17T04:35:33;37.00;;;7.70;;
59830;SDS011;45711;50.108;13.712;2023-08-17T04:37:59;51.53;;;9.75;;
59830;SDS011;45711;50.108;13.712;2023-08-17T04:40:24;42.67;;;8.48;;
59830;SDS011;45711;50.108;13.712;2023-08-17T04:42:50;29.35;;;8.00;;
59830;SDS011;45711;50.108;13.712;2023-08-17T04:45:15;21.88;;;7.68;;
59830;SDS011;45711;50.108;13.712;2023-08-17T04:47:42;14.52;;;7.18;;
59830;SDS011;45711;50.108;13.712;2023-08-17T04:50:08;12.57;;;8.00;;
59830;SDS011;45711;50.108;13.712;2023-08-17T04:52:34;12.05;;;7.53;;
59830;SDS011;45711;50.108;13.712;2023-08-17T04:54:59;13.48;;;7.50;;
59830;SDS011;45711;50.108;13.712;2023-08-17T05:00:04;12.73;;;8.18;;
59830;SDS011;45711;50.108;13.712;2023-08-17T06:19:18;35.47;;;13.80;;
59830;SDS011;45711;50.108;13.712;2023-08-17T06:21:44;20.90;;;12.48;;
59830;SDS011;45711;50.108;13.712;2023-08-17T06:24:09;30.45;;;15.30;;
59830;SDS011;45711;50.108;13.712;2023-08-17T06:26:35;21.17;;;11.65;;
59830;SDS011;45711;50.108;13.712;2023-08-17T06:29:00;27.15;;;12.48;;
59830;SDS011;45711;50.108;13.712;2023-08-17T06:31:26;25.30;;;13.02;;
59830;SDS011;45711;50.108;13.712;2023-08-17T06:33:54;18.45;;;11.38;;
59830;SDS011;45711;50.108;13.712;2023-08-17T06:36:20;29.25;;;12.65;;
59830;SDS011;45711;50.108;13.712;2023-08-17T06:38:45;22.48;;;12.70;;
59830;SDS011;45711;50.108;13.712;2023-08-17T06:41:11;24.33;;;12.43;;
59830;SDS011;45711;50.108;13.712;2023-08-17T06:43:36;17.40;;;11.82;;
59830;SDS011;45711;50.108;13.712;2023-08-17T06:46:02;18.27;;;10.73;;
59830;SDS011;45711;50.108;13.712;2023-08-17T06:48:28;15.80;;;10.20;;
59830;SDS011;45711;50.108;13.712;2023-08-17T06:50:55;12.85;;;9.55;;
59830;SDS011;45711;50.108;13.712;2023-08-17T06:53:20;13.68;;;9.45;;
59830;SDS011;45711;50.108;13.712;2023-08-17T06:55:46;14.55;;;8.90;;
59830;SDS011;45711;50.108;13.712;2023-08-17T06:58:12;13.77;;;9.07;;
59830;SDS011;45711;50.108;13.712;2023-08-17T07:00:37;16.92;;;6.78;;
59830;SDS011;45711;50.108;13.712;2023-08-17T07:03:05;7.55;;;6.45;;
59830;SDS011;45711;50.108;13.712;2023-08-17T07:05:31;10.20;;;6.90;;
59830;SDS011;45711;50.108;13.712;2023-08-17T07:07:58;13.73;;;6.65;;
59830;SDS011;45711;50.108;13.712;2023-08-17T07:10:24;10.93;;;6.20;;
59830;SDS011;45711;50.108;13.712;2023-08-17T07:12:50;10.18;;;7.15;;
59830;SDS011;45711;50.108;13.712;2023-08-17T07:15:15;13.15;;;7.07;;
59830;SDS011;45711;50.108;13.712;2023-08-17T07:17:41;9.55;;;5.95;;
59830;SDS011;45711;50.108;13.712;2023-08-17T07:20:07;13.13;;;5.90;;
59830;SDS011;45711;50.108;13.712;2023-08-17T07:22:33;6.43;;;5.22;;
59830;SDS011;45711;50.108;13.712;2023-08-17T07:25:01;7.60;;;6.28;;
59830;SDS011;45711;50.108;13.712;2023-08-17T07:27:27;9.25;;;6.15;;
59830;SDS011;45711;50.108;13.712;2023-08-17T07:29:52;11.57;;;6.47;;
59830;SDS011;45711;50.108;13.712;2023-08-17T07:32:18;8.85;;;5.97;;
59830;SDS011;45711;50.108;13.712;2023-08-17T07:34:43;9.60;;;5.57;;
59830;SDS011;45711;50.108;13.712;2023-08-17T07:37:09;13.35;;;6.10;;
59830;SDS011;45711;50.108;13.712;2023-08-17T07:39:34;8.68;;;6.32;;
59830;SDS011;45711;50.108;13.712;2023-08-17T07:42:02;11.65;;;6.15;;
59830;SDS011;45711;50.108;13.712;2023-08-17T07:44:27;11.70;;;5.30;;
59830;SDS011;45711;50.108;13.712;2023-08-17T07:46:54;10.18;;;6.07;;
59830;SDS011;45711;50.108;13.712;2023-08-17T07:49:19;8.90;;;5.97;;
59830;SDS011;45711;50.108;13.712;2023-08-17T07:51:45;6.93;;;6.00;;
59830;SDS011;45711;50.108;13.712;2023-08-17T07:54:10;9.55;;;5.80;;
59830;SDS011;45711;50.108;13.712;2023-08-17T07:56:36;9.38;;;5.75;;
59830;SDS011;45711;50.108;13.712;2023-08-17T07:59:03;6.25;;;5.30;;
59830;SDS011;45711;50.108;13.712;2023-08-17T08:01:29;7.85;;;5.47;;
59830;SDS011;45711;50.108;13.712;2023-08-17T08:03:54;8.15;;;6.13;;
59830;SDS011;45711;50.108;13.712;2023-08-17T08:06:20;7.53;;;6.07;;
59830;SDS011;45711;50.108;13.712;2023-08-17T08:08:45;9.75;;;5.03;;
59830;SDS011;45711;50.108;13.712;2023-08-17T08:11:11;11.23;;;6.05;;
59830;SDS011;45711;50.108;13.712;2023-08-17T08:13:37;8.70;;;5.38;;
59830;SDS011;45711;50.108;13.712;2023-08-17T08:16:04;10.65;;;5.72;;
59830;SDS011;45711;50.108;13.712;2023-08-17T08:18:29;6.70;;;5.65;;
59830;SDS011;45711;50.108;13.712;2023-08-17T08:20:55;15.38;;;5.60;;
59830;SDS011;45711;50.108;13.712;2023-08-17T08:23:20;7.85;;;5.43;;
59830;SDS011;45711;50.108;13.712;2023-08-17T08:25:46;9.65;;;5.22;;
59830;SDS011;45711;50.108;13.712;2023-08-17T08:28:11;6.60;;;5.30;;
59830;SDS011;45711;50.108;13.712;2023-08-17T08:30:37;9.02;;;5.30;;
59830;SDS011;45711;50.108;13.712;2023-08-17T08:33:04;16.10;;;5.43;;
59830;SDS011;45711;50.108;13.712;2023-08-17T08:35:30;11.32;;;5.25;;
59830;SDS011;45711;50.108;13.712;2023-08-17T08:37:58;9.75;;;5.43;;
59830;SDS011;45711;50.108;13.712;2023-08-17T08:40:27;7.07;;;5.25;;
59830;SDS011;45711;50.108;13.712;2023-08-17T08:42:53;6.65;;;4.97;;
59830;SDS011;45711;50.108;13.712;2023-08-17T08:45:19;9.52;;;5.35;;
59830;SDS011;45711;50.108;13.712;2023-08-17T08:47:46;8.65;;;5.60;;
59830;SDS011;45711;50.108;13.712;2023-08-17T08:50:16;8.73;;;4.93;;
59830;SDS011;45711;50.108;13.712;2023-08-17T08:52:44;10.77;;;5.70;;
59830;SDS011;45711;50.108;13.712;2023-08-17T08:55:23;8.98;;;4.78;;
59830;SDS011;45711;50.108;13.712;2023-08-17T08:57:51;6.45;;;4.78;;
59830;SDS011;45711;50.108;13.712;2023-08-17T09:00:18;5.53;;;4.80;;
59830;SDS011;45711;50.108;13.712;2023-08-17T09:02:45;6.18;;;5.43;;
59830;SDS011;45711;50.108;13.712;2023-08-17T09:05:11;20.25;;;5.30;;
59830;SDS011;45711;50.108;13.712;2023-08-17T09:07:39;13.05;;;5.57;;
59830;SDS011;45711;50.108;13.712;2023-08-17T09:10:07;6.22;;;5.20;;
59830;SDS011;45711;50.108;13.712;2023-08-17T09:12:34;7.35;;;5.20;;
59830;SDS011;45711;50.108;13.712;2023-08-17T09:15:00;6.40;;;4.82;;
59830;SDS011;45711;50.108;13.712;2023-08-17T09:17:26;12.57;;;6.32;;
59830;SDS011;45711;50.108;13.712;2023-08-17T09:19:53;9.13;;;6.05;;
59830;SDS011;45711;50.108;13.712;2023-08-17T09:22:23;10.55;;;6.07;;
59830;SDS011;45711;50.108;13.712;2023-08-17T09:24:49;9.73;;;5.50;;
59830;SDS011;45711;50.108;13.712;2023-08-17T09:27:15;8.85;;;5.80;;
59830;SDS011;45711;50.108;13.712;2023-08-17T09:29:42;6.97;;;5.47;;
59830;SDS011;45711;50.108;13.712;2023-08-17T09:32:10;10.02;;;5.95;;
59830;SDS011;45711;50.108;13.712;2023-08-17T09:34:36;7.43;;;5.30;;
59830;SDS011;45711;50.108;13.712;2023-08-17T09:37:02;10.38;;;6.32;;
59830;SDS011;45711;50.108;13.712;2023-08-17T09:39:30;9.55;;;5.97;;
59830;SDS011;45711;50.108;13.712;2023-08-17T09:41:56;9.45;;;5.78;;
59830;SDS011;45711;50.108;13.712;2023-08-17T09:44:21;11.40;;;6.22;;
59830;SDS011;45711;50.108;13.712;2023-08-17T09:46:47;9.30;;;7.20;;
59830;SDS011;45711;50.108;13.712;2023-08-17T09:49:13;12.73;;;7.53;;
59830;SDS011;45711;50.108;13.712;2023-08-17T09:51:41;13.27;;;5.75;;
59830;SDS011;45711;50.108;13.712;2023-08-17T09:54:07;9.55;;;6.35;;
59830;SDS011;45711;50.108;13.712;2023-08-17T09:56:34;11.52;;;7.57;;
59830;SDS011;45711;50.108;13.712;2023-08-17T09:59:00;11.07;;;6.85;;
59830;SDS011;45711;50.108;13.712;2023-08-17T10:01:25;8.85;;;6.43;;
59830;SDS011;45711;50.108;13.712;2023-08-17T10:03:54;9.70;;;6.72;;
59830;SDS011;45711;50.108;13.712;2023-08-17T10:06:22;10.75;;;6.47;;
59830;SDS011;45711;50.108;13.712;2023-08-17T10:08:49;8.40;;;6.45;;
59830;SDS011;45711;50.108;13.712;2023-08-17T10:11:19;9.57;;;6.15;;
59830;SDS011;45711;50.108;13.712;2023-08-17T10:13:51;10.85;;;6.25;;
59830;SDS011;45711;50.108;13.712;2023-08-17T10:16:20;8.57;;;6.32;;
59830;SDS011;45711;50.108;13.712;2023-08-17T10:18:53;8.23;;;6.20;;
59830;SDS011;45711;50.108;13.712;2023-08-17T10:21:23;6.95;;;5.32;;
59830;SDS011;45711;50.108;13.712;2023-08-17T10:23:53;9.52;;;6.20;;
59830;SDS011;45711;50.108;13.712;2023-08-17T10:26:20;11.88;;;6.55;;
59830;SDS011;45711;50.108;13.712;2023-08-17T10:28:46;13.90;;;7.28;;
59830;SDS011;45711;50.108;13.712;2023-08-17T10:31:14;8.10;;;6.22;;
59830;SDS011;45711;50.108;13.712;2023-08-17T10:33:40;7.13;;;6.05;;
59830;SDS011;45711;50.108;13.712;2023-08-17T10:36:09;11.30;;;6.68;;
59830;SDS011;45711;50.108;13.712;2023-08-17T10:38:36;14.88;;;5.80;;
59830;SDS011;45711;50.108;13.712;2023-08-17T10:41:08;12.18;;;5.97;;
59830;SDS011;45711;50.108;13.712;2023-08-17T10:43:35;7.55;;;5.60;;
59830;SDS011;45711;50.108;13.712;2023-08-17T10:46:15;7.72;;;6.50;;
59830;SDS011;45711;50.108;13.712;2023-08-17T10:48:44;8.35;;;6.10;;
59830;SDS011;45711;50.108;13.712;2023-08-17T10:51:10;8.30;;;6.10;;
59830;SDS011;45711;50.108;13.712;2023-08-17T10:53:40;8.25;;;6.38;;
59830;SDS011;45711;50.108;13.712;2023-08-17T10:56:10;7.03;;;5.75;;
59830;SDS011;45711;50.108;13.712;2023-08-17T10:58:38;6.70;;;5.32;;
59830;SDS011;45711;50.108;13.712;2023-08-17T11:01:04;6.47;;;4.72;;
59830;SDS011;45711;50.108;13.712;2023-08-17T11:03:31;8.18;;;5.00;;
59830;SDS011;45711;50.108;13.712;2023-08-17T11:05:58;8.52;;;5.55;;
59830;SDS011;45711;50.108;13.712;2023-08-17T11:08:40;6.90;;;5.50;;
59830;SDS011;45711;50.108;13.712;2023-08-17T11:11:16;10.60;;;5.70;;
59830;SDS011;45711;50.108;13.712;2023-08-17T11:13:45;7.13;;;5.43;;
59830;SDS011;45711;50.108;13.712;2023-08-17T11:16:13;8.95;;;5.57;;
59830;SDS011;45711;50.108;13.712;2023-08-17T11:18:43;8.13;;;5.72;;
59830;SDS011;45711;50.108;13.712;2023-08-17T11:21:15;6.82;;;5.57;;
59830;SDS011;45711;50.108;13.712;2023-08-17T11:23:41;7.15;;;5.82;;
59830;SDS011;45711;50.108;13.712;2023-08-17T11:26:07;8.18;;;5.65;;
59830;SDS011;45711;50.108;13.712;2023-08-17T11:28:33;6.85;;;5.40;;
59830;SDS011;45711;50.108;13.712;2023-08-17T11:31:04;7.63;;;5.57;;
59830;SDS011;45711;50.108;13.712;2023-08-17T11:33:30;9.23;;;5.32;;
59830;SDS011;45711;50.108;13.712;2023-08-17T11:38:34;7.88;;;5.30;;
59830;SDS011;45711;50.108;13.712;2023-08-17T11:41:01;8.98;;;5.30;;
59830;SDS011;45711;50.108;13.712;2023-08-17T11:43:38;9.77;;;4.88;;
59830;SDS011;45711;50.108;13.712;2023-08-17T11:56:40;6.93;;;5.35;;
59830;SDS011;45711;50.108;13.712;2023-08-17T11:59:13;10.85;;;5.05;;
59830;SDS011;45711;50.108;13.712;2023-08-17T12:04:35;8.48;;;5.00;;
59830;SDS011;45711;50.108;13.712;2023-08-17T12:07:01;13.90;;;5.10;;
59830;SDS011;45711;50.108;13.712;2023-08-17T12:09:28;10.18;;;4.68;;
59830;SDS011;45711;50.108;13.712;2023-08-17T12:17:15;7.97;;;4.70;;
59830;SDS011;45711;50.108;13.712;2023-08-17T12:25:46;9.10;;;4.95;;
59830;SDS011;45711;50.108;13.712;2023-08-17T12:28:20;19.60;;;4.88;;
59830;SDS011;45711;50.108;13.712;2023-08-17T12:30:45;8.10;;;4.53;;
59830;SDS011;45711;50.108;13.712;2023-08-17T12:33:12;10.82;;;4.15;;
59830;SDS011;45711;50.108;13.712;2023-08-17T12:35:38;7.97;;;4.00;;
59830;SDS011;45711;50.108;13.712;2023-08-17T12:38:07;15.23;;;3.90;;
59830;SDS011;45711;50.108;13.712;2023-08-17T12:40:33;11.27;;;3.60;;
59830;SDS011;45711;50.108;13.712;2023-08-17T12:42:59;9.55;;;4.05;;
59830;SDS011;45711;50.108;13.712;2023-08-17T12:45:24;12.07;;;4.50;;
59830;SDS011;45711;50.108;13.712;2023-08-17T12:47:50;7.60;;;4.70;;
59830;SDS011;45711;50.108;13.712;2023-08-17T12:50:17;34.67;;;5.57;;
59830;SDS011;45711;50.108;13.712;2023-08-17T12:52:43;28.45;;;5.45;;
59830;SDS011;45711;50.108;13.712;2023-08-17T12:55:09;11.80;;;4.65;;
59830;SDS011;45711;50.108;13.712;2023-08-17T12:57:34;11.13;;;4.60;;
59830;SDS011;45711;50.108;13.712;2023-08-17T13:00:00;32.67;;;6.18;;
59830;SDS011;45711;50.108;13.712;2023-08-17T13:02:26;13.88;;;4.65;;
59830;SDS011;45711;50.108;13.712;2023-08-17T13:04:51;7.93;;;4.25;;
59830;SDS011;45711;50.108;13.712;2023-08-17T13:07:18;9.00;;;4.38;;
59830;SDS011;45711;50.108;13.712;2023-08-17T13:09:44;4.57;;;3.53;;
59830;SDS011;45711;50.108;13.712;2023-08-17T13:12:11;7.25;;;4.55;;
59830;SDS011;45711;50.108;13.712;2023-08-17T13:14:37;5.57;;;4.05;;
59830;SDS011;45711;50.108;13.712;2023-08-17T13:17:03;6.03;;;3.90;;
59830;SDS011;45711;50.108;13.712;2023-08-17T13:19:28;7.85;;;3.40;;
59830;SDS011;45711;50.108;13.712;2023-08-17T13:21:54;10.95;;;3.83;;
59830;SDS011;45711;50.108;13.712;2023-08-17T13:24:21;18.30;;;5.25;;
59830;SDS011;45711;50.108;13.712;2023-08-17T13:26:46;4.28;;;3.88;;
59830;SDS011;45711;50.108;13.712;2023-08-17T13:29:12;9.15;;;4.15;;
59830;SDS011;45711;50.108;13.712;2023-08-17T13:31:38;4.35;;;3.35;;
59830;SDS011;45711;50.108;13.712;2023-08-17T13:34:03;8.63;;;4.78;;
59830;SDS011;45711;50.108;13.712;2023-08-17T13:36:29;9.05;;;4.38;;
59830;SDS011;45711;50.108;13.712;2023-08-17T13:38:55;5.43;;;3.50;;
59830;SDS011;45711;50.108;13.712;2023-08-17T13:41:22;7.68;;;3.40;;
59830;SDS011;45711;50.108;13.712;2023-08-17T13:43:50;6.10;;;4.18;;
59830;SDS011;45711;50.108;13.712;2023-08-17T13:46:15;5.85;;;3.25;;
59830;SDS011;45711;50.108;13.712;2023-08-17T13:48:41;9.48;;;4.45;;
59830;SDS011;45711;50.108;13.712;2023-08-17T13:51:06;7.22;;;3.70;;
59830;SDS011;45711;50.108;13.712;2023-08-17T13:53:32;6.60;;;3.85;;
59830;SDS011;45711;50.108;13.712;2023-08-17T13:55:58;5.45;;;3.63;;
59830;SDS011;45711;50.108;13.712;2023-08-17T13:58:25;6.75;;;3.30;;
59830;SDS011;45711;50.108;13.712;2023-08-17T14:00:50;7.13;;;4.15;;
59830;SDS011;45711;50.108;13.712;2023-08-17T14:03:16;5.43;;;3.30;;
59830;SDS011;45711;50.108;13.712;2023-08-17T14:05:41;8.15;;;4.00;;
59830;SDS011;45711;50.108;13.712;2023-08-17T14:08:07;30.45;;;5.65;;
59830;SDS011;45711;50.108;13.712;2023-08-17T14:10:33;5.40;;;3.58;;
59830;SDS011;45711;50.108;13.712;2023-08-17T14:13:01;11.20;;;4.03;;
59830;SDS011;45711;50.108;13.712;2023-08-17T14:15:28;7.47;;;4.20;;
59830;SDS011;45711;50.108;13.712;2023-08-17T14:17:55;69.82;;;6.28;;
59830;SDS011;45711;50.108;13.712;2023-08-17T14:20:21;16.98;;;3.97;;
59830;SDS011;45711;50.108;13.712;2023-08-17T14:22:47;11.45;;;3.35;;
59830;SDS011;45711;50.108;13.712;2023-08-17T14:25:13;25.45;;;3.95;;
59830;SDS011;45711;50.108;13.712;2023-08-17T14:27:38;6.15;;;2.80;;
59830;SDS011;45711;50.108;13.712;2023-08-17T14:30:04;3.63;;;2.53;;
59830;SDS011;45711;50.108;13.712;2023-08-17T14:32:32;6.28;;;2.80;;
59830;SDS011;45711;50.108;13.712;2023-08-17T14:34:58;7.03;;;3.20;;
59830;SDS011;45711;50.108;13.712;2023-08-17T14:37:24;7.10;;;3.42;;
59830;SDS011;45711;50.108;13.712;2023-08-17T14:39:49;10.27;;;3.47;;
59830;SDS011;45711;50.108;13.712;2023-08-17T14:42:15;5.85;;;2.88;;
59830;SDS011;45711;50.108;13.712;2023-08-17T14:44:40;8.98;;;3.78;;
59830;SDS011;45711;50.108;13.712;2023-08-17T14:47:06;10.05;;;3.17;;
59830;SDS011;45711;50.108;13.712;2023-08-17T14:49:33;9.15;;;3.70;;
59830;SDS011;45711;50.108;13.712;2023-08-17T14:51:58;7.25;;;3.63;;
59830;SDS011;45711;50.108;13.712;2023-08-17T14:54:24;4.38;;;3.40;;
59830;SDS011;45711;50.108;13.712;2023-08-17T14:56:50;5.85;;;3.20;;
59830;SDS011;45711;50.108;13.712;2023-08-17T14:59:16;11.85;;;3.90;;
59830;SDS011;45711;50.108;13.712;2023-08-17T15:01:42;7.75;;;3.55;;
59830;SDS011;45711;50.108;13.712;2023-08-17T15:04:07;7.05;;;3.53;;
59830;SDS011;45711;50.108;13.712;2023-08-17T15:06:34;9.93;;;4.07;;
59830;SDS011;45711;50.108;13.712;2023-08-17T15:09:00;6.97;;;3.70;;
59830;SDS011;45711;50.108;13.712;2023-08-17T15:11:27;18.67;;;3.95;;
59830;SDS011;45711;50.108;13.712;2023-08-17T15:13:53;12.27;;;4.35;;
59830;SDS011;45711;50.108;13.712;2023-08-17T15:16:19;5.65;;;4.07;;
59830;SDS011;45711;50.108;13.712;2023-08-17T15:18:50;12.20;;;3.97;;
59830;SDS011;45711;50.108;13.712;2023-08-17T15:21:15;45.65;;;5.63;;
59830;SDS011;45711;50.108;13.712;2023-08-17T15:23:42;11.02;;;3.80;;
59830;SDS011;45711;50.108;13.712;2023-08-17T15:26:08;12.93;;;4.00;;
59830;SDS011;45711;50.108;13.712;2023-08-17T15:28:35;19.63;;;4.28;;
59830;SDS011;45711;50.108;13.712;2023-08-17T15:31:02;21.75;;;5.43;;
59830;SDS011;45711;50.108;13.712;2023-08-17T15:33:30;17.52;;;4.40;;
59830;SDS011;45711;50.108;13.712;2023-08-17T15:35:56;12.18;;;4.10;;
59830;SDS011;45711;50.108;13.712;2023-08-17T15:38:23;9.00;;;4.43;;
59830;SDS011;45711;50.108;13.712;2023-08-17T15:40:50;13.13;;;4.72;;
59830;SDS011;45711;50.108;13.712;2023-08-17T15:43:16;10.60;;;4.13;;
59830;SDS011;45711;50.108;13.712;2023-08-17T15:45:42;39.45;;;5.32;;
59830;SDS011;45711;50.108;13.712;2023-08-17T16:01:14;11.43;;;3.88;;
59830;SDS011;45711;50.108;13.712;2023-08-17T16:09:03;6.63;;;4.55;;
59830;SDS011;45711;50.108;13.712;2023-08-17T16:11:37;12.25;;;4.10;;
59830;SDS011;45711;50.108;13.712;2023-08-17T16:19:39;6.43;;;3.50;;
59830;SDS011;45711;50.108;13.712;2023-08-17T16:24:49;6.20;;;3.83;;
59830;SDS011;45711;50.108;13.712;2023-08-17T16:27:18;8.27;;;4.07;;
59830;SDS011;45711;50.108;13.712;2023-08-17T16:29:43;6.53;;;3.38;;
59830;SDS011;45711;50.108;13.712;2023-08-17T16:32:09;6.22;;;3.47;;
59830;SDS011;45711;50.108;13.712;2023-08-17T16:34:52;7.55;;;3.17;;
59830;SDS011;45711;50.108;13.712;2023-08-17T16:37:21;7.03;;;3.60;;
59830;SDS011;45711;50.108;13.712;2023-08-17T16:39:53;6.82;;;3.88;;